createdAt,value
2022-10-11T00:44:46.712Z,11.57
2022-10-11T01:08:16.822Z,11.36
2022-10-11T01:10:57.395Z,11.33
2022-10-11T01:13:41.661Z,11.30
2022-10-11T01:16:40.332Z,11.28
2022-10-11T01:19:38.334Z,11.26
2022-10-11T01:22:35.879Z,11.25
2022-10-11T01:25:39.393Z,11.27
2022-10-11T01:28:19.189Z,11.28
2022-10-11T01:31:03.564Z,11.27
2022-10-11T01:34:01.969Z,11.25
2022-10-11T01:36:47.340Z,11.26
2022-10-11T01:39:33.885Z,11.27
2022-10-11T01:42:17.415Z,11.28
2022-10-11T01:44:58.691Z,11.27
2022-10-11T01:47:39.398Z,11.24
2022-10-11T01:50:48.863Z,11.22
2022-10-11T01:53:35.400Z,11.26
2022-10-11T01:56:51.172Z,11.24
2022-10-11T02:13:25.795Z,11.21
2022-10-11T02:16:09.390Z,11.19
2022-10-11T02:18:51.653Z,11.18
2022-10-11T02:21:35.059Z,11.15
2022-10-11T02:24:17.913Z,11.15
2022-10-11T02:26:59.819Z,11.13
2022-10-11T02:29:41.456Z,11.11
2022-10-11T02:32:23.555Z,11.04
2022-10-11T02:35:04.538Z,11.03
2022-10-11T02:37:45.470Z,11.02
2022-10-11T02:40:37.570Z,10.99
2022-10-11T02:43:32.769Z,10.95
2022-10-11T02:46:16.656Z,10.90
2022-10-11T02:48:59.661Z,10.88
2022-10-11T02:51:39.812Z,10.87
2022-10-11T02:57:29.731Z,10.82
2022-10-11T03:00:10.239Z,10.81
2022-10-11T03:02:51.307Z,10.81
2022-10-11T03:18:34.009Z,10.76
2022-10-11T03:21:14.517Z,10.74
2022-10-11T03:23:54.280Z,10.74
2022-10-11T03:26:34.108Z,10.72
2022-10-11T03:29:13.903Z,10.73
2022-10-11T03:31:53.812Z,10.73
2022-10-11T03:34:33.546Z,10.75
2022-10-11T03:37:13.345Z,10.80
2022-10-11T03:39:53.205Z,10.81
2022-10-11T03:42:32.975Z,10.82
2022-10-11T03:45:13.005Z,10.82
2022-10-11T03:47:54.209Z,10.83
2022-10-11T04:03:37.173Z,10.90
2022-10-11T04:06:17.451Z,10.94
2022-10-11T04:08:57.268Z,10.96
2022-10-11T04:11:37.085Z,10.97
2022-10-11T04:14:17.174Z,11.01
2022-10-11T04:17:00.410Z,11.01
2022-10-11T04:19:41.308Z,11.00
2022-10-11T04:22:21.231Z,10.98
2022-10-11T04:25:00.953Z,10.99
2022-10-11T04:27:40.753Z,11.00
2022-10-11T04:30:20.578Z,11.01
2022-10-11T04:33:00.629Z,11.02
2022-10-11T04:35:41.823Z,11.01
2022-10-11T04:38:21.916Z,11.04
2022-10-11T04:41:07.260Z,11.03
2022-10-11T04:43:47.717Z,11.02
2022-10-11T04:46:27.950Z,11.04
2022-10-11T04:49:08.811Z,11.04
2022-10-11T04:51:48.634Z,11.06
2022-10-11T04:54:28.430Z,11.07
2022-10-11T04:57:08.344Z,11.08
2022-10-11T05:15:26.861Z,11.19
2022-10-11T05:18:06.753Z,11.19
2022-10-11T05:20:46.580Z,11.19
2022-10-11T05:23:26.886Z,11.20
2022-10-11T05:26:08.245Z,11.19
2022-10-11T05:28:49.246Z,11.19
2022-10-11T05:31:29.073Z,11.19
2022-10-11T05:34:08.812Z,11.22
2022-10-11T05:36:48.580Z,11.25
2022-10-11T05:39:28.430Z,11.25
2022-10-11T05:42:10.062Z,11.26
2022-10-11T05:58:36.380Z,11.25
2022-10-11T06:01:21.806Z,11.25
2022-10-11T06:04:02.526Z,11.28
2022-10-11T06:06:43.305Z,11.28
2022-10-11T06:09:23.114Z,11.29
2022-10-11T06:12:03.026Z,11.30
2022-10-11T06:14:56.542Z,11.31
2022-10-11T06:17:53.768Z,11.30
2022-10-11T06:20:51.648Z,11.30
2022-10-11T06:23:49.735Z,11.30
2022-10-11T06:26:50.382Z,11.30
2022-10-11T06:29:49.188Z,11.31
2022-10-11T06:32:46.121Z,11.32
2022-10-11T06:35:59.551Z,11.33
2022-10-11T06:39:08.677Z,11.34
2022-10-11T06:42:07.604Z,11.36
2022-10-11T06:45:06.888Z,11.36
2022-10-11T06:48:13.574Z,11.36
2022-10-11T06:51:10.825Z,11.37
2022-10-11T07:07:34.765Z,11.53
2022-10-11T07:10:31.851Z,11.56
2022-10-11T07:13:26.400Z,11.56
2022-10-11T07:16:27.047Z,11.55
2022-10-11T07:19:24.854Z,11.56
2022-10-11T07:22:18.673Z,11.56
2022-10-11T07:25:15.775Z,11.57
2022-10-11T07:28:13.828Z,11.58
2022-10-11T07:31:08.839Z,11.59
2022-10-11T07:34:03.498Z,11.60
2022-10-11T07:36:57.620Z,11.60
2022-10-11T07:50:05.485Z,11.67
2022-10-11T07:53:03.767Z,11.68
2022-10-11T07:56:02.168Z,11.70
2022-10-11T07:59:06.307Z,11.71
2022-10-11T08:02:00.390Z,11.74
2022-10-11T08:04:54.610Z,11.77
2022-10-11T08:18:24.986Z,11.93
2022-10-11T08:21:32.010Z,11.98
2022-10-11T08:34:40.573Z,12.23
2022-10-11T08:37:34.870Z,12.25
2022-10-11T08:40:35.182Z,12.24
2022-10-11T08:43:35.005Z,12.27
2022-10-11T08:46:33.267Z,12.33
2022-10-11T08:49:33.264Z,12.37
2022-10-11T08:52:34.781Z,12.38
2022-10-11T08:55:40.033Z,12.39
2022-10-11T08:58:39.677Z,12.49
2022-10-11T09:01:33.327Z,12.60
2022-10-11T09:04:14.576Z,12.60
2022-10-11T09:07:05.186Z,12.47
2022-10-11T09:10:11.694Z,12.46
2022-10-11T09:13:14.214Z,12.53
2022-10-11T09:16:14.104Z,12.55
2022-10-11T09:19:01.000Z,12.48
2022-10-11T09:32:15.895Z,12.81
2022-10-11T09:34:43.931Z,12.89
2022-10-11T09:37:14.329Z,12.95
2022-10-11T09:39:51.340Z,13.00
2022-10-11T09:42:18.406Z,13.11
2022-10-11T09:44:46.982Z,13.03
2022-10-11T09:47:19.371Z,13.06
2022-10-11T09:49:53.050Z,13.05
2022-10-11T09:52:21.387Z,13.08
2022-10-11T09:54:55.605Z,13.12
2022-10-11T09:57:30.227Z,13.25
2022-10-11T10:00:01.743Z,13.34
2022-10-11T10:02:40.065Z,13.34
2022-10-11T10:05:09.930Z,13.36
2022-10-11T10:07:39.360Z,13.43
2022-10-11T10:10:24.945Z,13.43
2022-10-11T10:12:56.313Z,13.52
2022-10-11T10:15:24.186Z,13.56
2022-10-11T10:17:52.129Z,13.49
2022-10-11T10:20:38.040Z,13.54
2022-10-11T10:23:10.366Z,13.48
2022-10-11T10:25:43.261Z,13.45
2022-10-11T10:28:27.134Z,13.52
2022-10-11T10:30:56.662Z,13.45
2022-10-11T10:33:25.210Z,13.51
2022-10-11T10:35:58.409Z,13.56
2022-10-11T10:38:28.232Z,13.56
2022-10-11T10:41:01.006Z,13.56
2022-10-11T10:43:31.298Z,13.59
2022-10-11T10:45:58.331Z,13.66
2022-10-11T10:48:25.462Z,13.68
2022-10-11T10:50:58.736Z,13.72
2022-10-11T10:53:34.787Z,13.77
2022-10-11T10:56:01.888Z,13.81
2022-10-11T10:58:44.134Z,13.82
2022-10-11T11:01:20.851Z,13.79
2022-10-11T11:03:51.960Z,13.80
2022-10-11T11:06:19.034Z,13.84
2022-10-11T11:09:11.218Z,13.90
2022-10-11T11:11:50.332Z,14.01
2022-10-11T11:14:26.464Z,14.01
2022-10-11T11:17:13.123Z,14.01
2022-10-11T11:19:58.931Z,13.96
2022-10-11T11:22:37.923Z,14.00
2022-10-11T11:25:23.640Z,14.02
2022-10-11T11:28:11.863Z,14.02
2022-10-11T11:30:54.101Z,14.16
2022-10-11T11:33:30.910Z,14.27
2022-10-11T11:36:01.744Z,14.33
2022-10-11T11:38:38.149Z,14.33
2022-10-11T11:41:10.374Z,14.30
2022-10-11T11:43:50.955Z,14.21
2022-10-11T11:46:23.205Z,14.24
2022-10-11T11:48:52.172Z,14.28
2022-10-11T11:51:30.445Z,14.29
2022-10-11T11:54:16.779Z,14.31
2022-10-11T11:57:02.488Z,14.36
2022-10-11T11:59:35.328Z,14.39
2022-10-11T12:02:22.232Z,14.29
2022-10-11T12:04:50.242Z,14.24
2022-10-11T12:07:19.402Z,14.25
2022-10-11T12:09:51.851Z,14.32
2022-10-11T12:12:27.787Z,14.25
2022-10-11T12:15:10.153Z,14.30
2022-10-11T12:18:10.015Z,14.36
2022-10-11T12:20:40.759Z,14.41
2022-10-11T12:23:26.754Z,14.44
2022-10-11T12:26:12.459Z,14.49
2022-10-11T12:28:42.781Z,14.37
2022-10-11T12:31:23.855Z,14.38
2022-10-11T12:34:10.909Z,14.45
2022-10-11T12:36:44.968Z,14.48
2022-10-11T12:39:21.108Z,14.49
2022-10-11T12:41:51.179Z,14.52
2022-10-11T12:44:18.175Z,14.52
2022-10-11T12:46:51.449Z,14.55
2022-10-11T12:49:21.485Z,14.54
2022-10-11T12:52:00.871Z,14.56
2022-10-11T12:54:37.464Z,14.59
2022-10-11T12:57:18.901Z,14.61
2022-10-11T12:59:46.476Z,14.63
2022-10-11T13:02:35.831Z,14.66
2022-10-11T13:05:18.135Z,14.62
2022-10-11T13:07:46.542Z,14.56
2022-10-11T13:10:15.854Z,14.53
2022-10-11T13:12:44.426Z,14.55
2022-10-11T13:15:19.137Z,14.49
2022-10-11T13:17:48.606Z,14.52
2022-10-11T13:20:15.605Z,14.52
2022-10-11T13:22:43.573Z,14.53
2022-10-11T13:25:14.427Z,14.55
2022-10-11T13:27:41.778Z,14.61
2022-10-11T13:30:15.969Z,14.61
2022-10-11T13:32:43.595Z,14.64
2022-10-11T13:35:18.742Z,14.66
2022-10-11T13:37:48.374Z,14.56
2022-10-11T13:40:20.394Z,14.55
2022-10-11T13:42:49.325Z,14.55
2022-10-11T13:45:18.577Z,14.61
2022-10-11T13:47:45.968Z,14.68
2022-10-11T13:50:15.860Z,14.70
2022-10-11T13:52:52.409Z,14.75
2022-10-11T13:55:36.486Z,14.71
2022-10-11T13:58:16.243Z,14.71
2022-10-11T14:00:59.392Z,14.67
2022-10-11T14:03:37.316Z,14.74
2022-10-11T14:06:04.964Z,14.73
2022-10-11T14:08:35.605Z,14.61
2022-10-11T14:11:06.513Z,14.57
2022-10-11T14:13:34.107Z,14.54
2022-10-11T14:16:06.821Z,14.48
2022-10-11T14:18:37.128Z,14.39
2022-10-11T14:21:19.282Z,14.36
2022-10-11T14:23:46.750Z,14.43
2022-10-11T14:26:18.540Z,14.42
2022-10-11T14:28:49.333Z,14.41
2022-10-11T14:31:16.456Z,14.29
2022-10-11T14:33:43.563Z,14.28
2022-10-11T14:36:10.580Z,14.23
2022-10-11T14:38:37.626Z,14.16
2022-10-11T14:41:04.795Z,14.18
2022-10-11T14:43:32.052Z,14.22
2022-10-11T14:45:59.181Z,14.16
2022-10-11T14:48:50.307Z,14.17
2022-10-11T14:51:14.512Z,14.20
2022-10-11T14:53:46.184Z,14.22
2022-10-11T14:56:17.710Z,14.19
2022-10-11T14:58:47.972Z,14.16
2022-10-11T15:01:16.435Z,14.21
2022-10-11T15:03:43.551Z,14.22
2022-10-11T15:06:18.638Z,14.09
2022-10-11T15:08:46.177Z,14.08
2022-10-11T15:11:15.501Z,14.05
2022-10-11T15:13:42.731Z,14.07
2022-10-11T15:16:11.767Z,14.04
2022-10-11T15:18:38.853Z,14.07
2022-10-11T15:21:06.208Z,14.06
2022-10-11T15:23:33.416Z,14.01
2022-10-11T15:26:00.603Z,13.98
2022-10-11T15:28:31.997Z,13.98
2022-10-11T15:30:59.651Z,13.97
2022-10-11T15:33:26.834Z,13.98
2022-10-11T15:35:53.904Z,14.02
2022-10-11T15:38:22.993Z,14.05
2022-10-11T15:40:50.660Z,14.06
2022-10-11T15:43:24.201Z,14.06
2022-10-11T15:45:51.883Z,14.06
2022-10-11T15:48:20.544Z,13.96
2022-10-11T15:50:48.161Z,13.99
2022-10-11T15:53:15.145Z,13.99
2022-10-11T15:55:49.874Z,13.97
2022-10-11T15:58:16.860Z,13.97
2022-10-11T16:00:44.786Z,13.98
2022-10-11T16:03:13.023Z,13.99
2022-10-11T16:05:40.663Z,13.97
2022-10-11T16:08:08.355Z,13.96
2022-10-11T16:10:35.556Z,13.96
2022-10-11T16:13:03.163Z,13.95
2022-10-11T16:15:30.318Z,13.96
2022-10-11T16:17:57.412Z,13.93
2022-10-11T16:20:25.776Z,13.92
2022-10-11T16:22:53.871Z,13.90
2022-10-11T16:25:21.494Z,13.82
2022-10-11T16:27:48.684Z,13.80
2022-10-11T16:30:17.487Z,13.77
2022-10-11T16:32:44.574Z,13.75
2022-10-11T16:35:12.466Z,13.72
2022-10-11T16:37:39.973Z,13.63
2022-10-11T16:40:08.007Z,13.56
2022-10-11T16:42:35.340Z,13.56
2022-10-11T16:45:02.468Z,13.50
2022-10-11T16:47:29.588Z,13.47
2022-10-11T16:49:56.794Z,13.41
2022-10-11T16:52:23.951Z,13.39
2022-10-11T16:54:51.419Z,13.37
2022-10-11T16:57:19.867Z,13.32
2022-10-11T16:59:47.175Z,13.28
2022-10-11T17:02:16.400Z,13.23
2022-10-11T17:04:43.941Z,13.17
2022-10-11T17:07:13.054Z,13.12
2022-10-11T17:09:43.919Z,13.17
2022-10-11T17:12:13.086Z,13.20
2022-10-11T17:14:40.944Z,13.18
2022-10-11T17:17:09.071Z,13.15
2022-10-11T17:19:41.341Z,13.14
2022-10-11T17:22:11.886Z,13.12
2022-10-11T17:24:38.930Z,13.12
2022-10-11T17:27:06.149Z,13.10
2022-10-11T17:29:33.598Z,13.09
2022-10-11T17:32:00.978Z,13.06
2022-10-11T17:34:28.020Z,13.03
2022-10-11T17:36:55.100Z,12.99
2022-10-11T17:39:22.947Z,12.97
2022-10-11T17:41:50.315Z,12.94
2022-10-11T17:44:17.997Z,12.93
2022-10-11T17:46:45.508Z,12.91
2022-10-11T17:49:12.807Z,12.88
2022-10-11T17:51:40.278Z,12.83
2022-10-11T17:54:12.240Z,12.83
2022-10-11T17:56:40.344Z,12.79
2022-10-11T17:59:08.004Z,12.74
2022-10-11T18:01:35.694Z,12.74
2022-10-11T18:04:04.835Z,12.74
2022-10-11T18:06:33.504Z,12.75
2022-10-11T18:09:01.574Z,12.70
2022-10-11T18:11:29.026Z,12.66
2022-10-11T18:13:56.156Z,12.66
2022-10-11T18:16:24.541Z,12.67
2022-10-11T18:18:51.643Z,12.65
2022-10-11T18:21:19.463Z,12.62
2022-10-11T18:23:46.499Z,12.59
2022-10-11T18:26:20.791Z,12.60
2022-10-11T18:28:48.394Z,12.59
2022-10-11T18:31:17.132Z,12.58
2022-10-11T18:33:45.913Z,12.55
2022-10-11T18:36:16.486Z,12.51
2022-10-11T18:38:47.030Z,12.49
2022-10-11T18:41:15.855Z,12.44
2022-10-11T18:43:42.995Z,12.40
2022-10-11T18:46:11.920Z,12.39
2022-10-11T18:48:39.961Z,12.38
2022-10-11T18:51:11.615Z,12.35
2022-10-11T18:53:38.749Z,12.31
2022-10-11T18:56:07.248Z,12.26
2022-10-11T18:58:35.242Z,12.22
2022-10-11T19:01:09.778Z,12.23
2022-10-11T19:03:36.870Z,12.20
2022-10-11T19:06:05.476Z,12.19
2022-10-11T19:08:33.245Z,12.17
2022-10-11T19:11:06.783Z,12.16
2022-10-11T19:13:34.594Z,12.16
2022-10-11T19:16:05.827Z,12.13
2022-10-11T19:18:33.083Z,12.14
2022-10-11T19:21:00.866Z,12.11
2022-10-11T19:23:31.128Z,12.08
2022-10-11T19:25:58.143Z,12.03
2022-10-11T19:28:25.212Z,12.01
2022-10-11T19:30:52.326Z,12.02
2022-10-11T19:33:19.373Z,11.98
2022-10-11T19:35:53.674Z,11.94
2022-10-11T19:40:52.701Z,11.89
2022-10-11T19:43:19.806Z,11.89
2022-10-11T19:45:46.901Z,11.88
2022-10-11T19:48:13.949Z,11.89
2022-10-11T19:50:41.022Z,11.89
2022-10-11T19:53:08.208Z,11.85
2022-10-11T19:55:35.378Z,11.83
2022-10-11T19:58:08.052Z,11.83
2022-10-11T20:00:35.430Z,11.79
2022-10-11T20:03:02.574Z,11.78
2022-10-11T20:05:29.673Z,11.77
2022-10-11T20:07:56.837Z,11.75
2022-10-11T20:10:23.892Z,11.74
2022-10-11T20:12:50.965Z,11.71
2022-10-11T20:15:18.056Z,11.69
2022-10-11T20:17:48.408Z,11.66
2022-10-11T20:20:17.183Z,11.65
2022-10-11T20:22:44.580Z,11.62
2022-10-11T20:25:11.698Z,11.59
2022-10-11T20:27:42.384Z,11.54
2022-10-11T20:30:10.130Z,11.48
2022-10-11T20:32:37.180Z,11.45
2022-10-11T20:35:04.450Z,11.40
2022-10-11T20:37:31.972Z,11.30
2022-10-11T20:39:59.253Z,11.33
2022-10-11T20:42:29.709Z,11.36
2022-10-11T20:44:57.141Z,11.32
2022-10-11T20:47:24.204Z,11.25
2022-10-11T20:49:51.217Z,11.26
2022-10-11T20:52:18.301Z,11.27
2022-10-11T20:54:45.355Z,11.26
2022-10-11T20:57:12.445Z,11.19
2022-10-11T20:59:39.510Z,11.15
2022-10-11T21:02:06.992Z,11.13
2022-10-11T21:04:33.997Z,11.08
2022-10-11T21:07:01.029Z,10.99
2022-10-11T21:09:28.117Z,11.02
2022-10-11T21:11:55.295Z,11.04
2022-10-11T21:14:22.318Z,11.00
2022-10-11T21:16:49.406Z,10.98
2022-10-11T21:19:16.472Z,10.97
2022-10-11T21:21:45.666Z,10.96
2022-10-11T21:24:14.410Z,10.95
2022-10-11T21:26:41.422Z,10.92
2022-10-11T21:29:08.555Z,10.92
2022-10-11T21:31:35.980Z,10.90
2022-10-11T21:34:05.059Z,10.91
2022-10-11T21:36:32.109Z,10.84
2022-10-11T21:38:59.288Z,10.83
2022-10-11T21:41:26.814Z,10.80
2022-10-11T21:43:53.873Z,10.72
2022-10-11T21:46:22.824Z,10.69
2022-10-11T21:48:50.338Z,10.68
2022-10-11T21:51:20.090Z,10.61
2022-10-11T21:53:47.149Z,10.68
2022-10-11T21:56:15.138Z,10.70
2022-10-11T21:58:42.227Z,10.62
2022-10-11T22:01:10.847Z,10.57
2022-10-11T22:03:37.986Z,10.56
2022-10-11T22:06:05.324Z,10.54
2022-10-11T22:08:32.800Z,10.50
2022-10-11T22:11:00.932Z,10.47
2022-10-11T22:13:29.090Z,10.48
2022-10-11T22:15:56.371Z,10.48
2022-10-11T22:18:23.820Z,10.43
2022-10-11T22:20:50.919Z,10.45
2022-10-11T22:23:19.042Z,10.46
2022-10-11T22:25:46.201Z,10.46
2022-10-11T22:28:13.376Z,10.46
2022-10-11T22:30:40.475Z,10.39
2022-10-11T22:33:07.618Z,10.33
2022-10-11T22:35:37.236Z,10.30
2022-10-11T22:38:06.025Z,10.33
2022-10-11T22:40:33.130Z,10.33
2022-10-11T22:43:00.291Z,10.34
2022-10-11T22:45:27.320Z,10.38
2022-10-11T22:47:54.344Z,10.33
2022-10-11T22:50:21.468Z,10.26
2022-10-11T22:52:48.529Z,10.24
2022-10-11T22:55:19.868Z,10.28
2022-10-11T22:57:47.388Z,10.26
2022-10-11T23:00:14.722Z,10.23
2022-10-11T23:02:41.862Z,10.24
2022-10-11T23:05:08.922Z,10.23
2022-10-11T23:07:36.286Z,10.21
2022-10-11T23:10:03.805Z,10.15
2022-10-11T23:12:30.929Z,10.14
2022-10-11T23:14:58.022Z,10.11
2022-10-11T23:17:25.056Z,10.12
2022-10-11T23:19:52.743Z,10.12
2022-10-11T23:22:19.783Z,10.15
2022-10-11T23:24:46.819Z,10.15
2022-10-11T23:27:13.912Z,10.05
2022-10-11T23:29:41.163Z,10.05
2022-10-11T23:32:08.887Z,10.09
2022-10-11T23:34:36.163Z,10.07
2022-10-11T23:37:03.829Z,10.03
2022-10-11T23:39:30.867Z,10.02
2022-10-11T23:41:57.918Z,10.00
2022-10-11T23:44:24.994Z,10.00
2022-10-11T23:46:52.130Z,10.00
2022-10-11T23:49:19.400Z,9.97
2022-10-11T23:51:46.516Z,9.97
2022-10-11T23:54:13.605Z,9.97
2022-10-11T23:56:40.678Z,9.98
2022-10-11T23:59:10.197Z,10.00
